Time;durP1;ratioP1;P1;durP2;ratioP2;P2;SDS_P1;SDS_P2;PMS_P1;PMS_P2;Temp;Humidity;BMP_temperature;BMP_pressure;BME280_temperature;BME280_humidity;BME280_pressure;Samples;Min_cycle;Max_cycle;Signal;HPM_P1;HPM_P2
2022/07/14 00:00:52;;;;;;;21.33;6.00;;;;;;;14.15;91.93;101998.94;5052134;28;20431;-48
2022/07/14 00:03:18;;;;;;;25.40;6.03;;;;;;;14.12;91.89;101995.34;5052270;28;20029;-48
2022/07/14 00:05:43;;;;;;;20.23;5.50;;;;;;;14.01;91.04;101989.81;5052946;28;20040;-46
2022/07/14 00:08:08;;;;;;;21.15;5.35;;;;;;;13.91;90.68;101988.59;5053000;28;20025;-47
2022/07/14 00:10:34;;;;;;;22.60;5.72;;;;;;;13.88;91.34;101988.50;5052230;28;20037;-48
2022/07/14 00:12:59;;;;;;;20.73;6.25;;;;;;;13.86;91.50;101984.97;5053046;28;20495;-47
2022/07/14 00:15:25;;;;;;;28.60;5.95;;;;;;;13.86;92.00;101990.16;5052833;28;20496;-47
2022/07/14 00:17:55;;;;;;;24.40;5.68;;;;;;;13.79;91.98;101989.06;5051964;28;20025;-46
2022/07/14 00:20:21;;;;;;;23.85;6.53;;;;;;;13.90;92.78;101988.56;5052395;28;20518;-49
2022/07/14 00:22:46;;;;;;;19.02;6.50;;;;;;;13.88;91.79;101977.25;5052803;28;20029;-49
2022/07/14 00:25:11;;;;;;;16.92;5.40;;;;;;;13.85;91.55;101974.56;5051891;28;20032;-49
2022/07/14 00:27:37;;;;;;;25.02;6.22;;;;;;;13.80;91.72;101970.09;5052835;28;20044;-48
2022/07/14 00:30:04;;;;;;;15.65;5.45;;;;;;;13.71;90.82;101969.78;5052567;28;20089;-44
2022/07/14 00:32:29;;;;;;;19.50;6.55;;;;;;;13.64;90.75;101962.63;5051909;28;20040;-47
2022/07/14 00:34:57;;;;;;;27.08;5.97;;;;;;;13.55;90.99;101970.06;5052452;28;20029;-48
2022/07/14 00:37:22;;;;;;;21.05;5.97;;;;;;;13.54;92.06;101966.59;5052449;28;20880;-47
2022/07/14 00:39:56;;;;;;;22.92;6.78;;;;;;;13.56;93.29;101982.22;5051559;28;20045;-45
2022/07/14 00:42:28;;;;;;;31.90;7.63;;;;;;;13.64;94.91;101983.34;5052610;28;20035;-47
2022/07/14 00:44:53;;;;;;;32.33;7.28;;;;;;;13.66;94.69;101987.75;5052558;28;20029;-47
2022/07/14 00:47:19;;;;;;;34.75;8.65;;;;;;;13.75;95.03;101971.66;5051474;28;20465;-49
2022/07/14 00:49:44;;;;;;;29.75;7.72;;;;;;;13.81;94.78;101981.34;5052645;28;20020;-47
2022/07/14 00:52:09;;;;;;;27.08;6.90;;;;;;;13.86;95.11;101976.31;5051434;28;20035;-46
2022/07/14 00:54:35;;;;;;;25.40;7.47;;;;;;;13.88;94.60;101972.06;5052579;28;20083;-47
2022/07/14 00:57:00;;;;;;;21.50;6.32;;;;;;;13.88;93.69;101966.88;5052400;28;20495;-48
2022/07/14 00:59:25;;;;;;;23.60;6.45;;;;;;;13.81;93.50;101968.38;5051421;28;20385;-49
2022/07/14 01:01:50;;;;;;;31.08;7.13;;;;;;;13.85;94.14;101982.34;5052111;28;20029;-49
2022/07/14 01:04:16;;;;;;;32.63;8.13;;;;;;;13.88;94.21;101992.78;5052127;28;20024;-49
2022/07/14 01:06:42;;;;;;;25.55;7.65;;;;;;;13.94;94.21;101987.81;5051728;28;20025;-47
2022/07/14 01:09:07;;;;;;;32.13;8.07;;;;;;;13.97;94.82;101977.59;5052002;28;20057;-49
2022/07/14 01:11:32;;;;;;;30.98;7.95;;;;;;;14.02;94.93;101980.31;5052337;28;20029;-48
2022/07/14 01:14:02;;;;;;;30.17;7.65;;;;;;;14.04;93.95;101987.31;5055432;28;20029;-47
2022/07/14 01:16:27;;;;;;;25.92;7.47;;;;;;;13.99;92.96;101987.16;5056285;28;20188;-48
2022/07/14 01:18:53;;;;;;;23.45;7.00;;;;;;;14.00;93.55;101996.69;5056413;28;20119;-48
2022/07/14 01:21:18;;;;;;;28.63;8.05;;;;;;;14.02;93.71;101999.34;5055452;28;20469;-47
2022/07/14 01:23:43;;;;;;;33.58;7.13;;;;;;;13.95;93.43;102002.56;5056098;28;20025;-47
2022/07/14 01:26:08;;;;;;;24.60;7.38;;;;;;;13.92;93.53;102010.25;5055947;28;20021;-49
2022/07/14 01:28:34;;;;;;;25.73;7.93;;;;;;;13.90;94.26;102009.28;5055165;28;20029;-49
2022/07/14 01:30:59;;;;;;;28.13;7.45;;;;;;;13.90;94.63;102007.56;5055749;28;20477;-49
2022/07/14 01:33:24;;;;;;;23.17;7.15;;;;;;;13.92;94.33;102005.91;5055875;28;20052;-48
2022/07/14 01:35:49;;;;;;;25.35;7.25;;;;;;;13.87;94.15;102014.38;5055226;28;20025;-49
2022/07/14 01:38:16;;;;;;;24.20;6.53;;;;;;;13.76;93.44;102020.06;5055510;28;20041;-48
2022/07/14 01:40:41;;;;;;;21.55;6.05;;;;;;;13.66;93.18;102017.97;5056046;28;20027;-48
2022/07/14 01:43:07;;;;;;;19.13;6.38;;;;;;;13.61;93.45;102011.75;5054858;28;20028;-48
2022/07/14 01:45:34;;;;;;;25.00;7.88;;;;;;;13.58;94.06;102009.03;5055872;28;20083;-46
2022/07/14 01:48:00;;;;;;;23.00;7.20;;;;;;;13.55;94.22;102008.94;5055490;28;20435;-48
2022/07/14 01:50:26;;;;;;;20.30;7.20;;;;;;;13.50;94.78;102006.16;5054916;28;20470;-47
2022/07/14 01:52:51;;;;;;;29.52;7.45;;;;;;;13.48;95.36;102000.94;5055402;28;20021;-49
2022/07/14 01:55:16;;;;;;;22.77;7.85;;;;;;;13.44;95.23;101996.47;5055482;28;20104;-49
2022/07/14 01:57:42;;;;;;;23.20;6.78;;;;;;;13.39;94.95;102002.28;5055002;28;20033;-45
2022/07/14 02:00:08;;;;;;;28.73;8.00;;;;;;;13.35;95.67;102001.28;5055094;28;20028;-48
2022/07/14 02:02:33;;;;;;;27.80;8.48;;;;;;;13.31;96.47;101995.13;5054561;28;20054;-46
2022/07/14 02:04:59;;;;;;;24.10;9.07;;;;;;;13.30;96.89;101997.66;5055536;28;20025;-46
2022/07/14 02:07:24;;;;;;;32.20;9.90;;;;;;;13.32;97.29;101996.88;5055349;28;20376;-45
2022/07/14 02:12:33;;;;;;;33.40;10.52;;;;;;;13.31;97.51;101986.44;5055224;28;20043;-45
2022/07/14 02:14:58;;;;;;;35.50;10.43;;;;;;;13.29;97.15;101985.53;5055015;28;20021;-48
2022/07/14 02:17:23;;;;;;;42.47;11.52;;;;;;;13.26;97.05;101986.28;5054441;28;20165;-48
2022/07/14 02:19:49;;;;;;;29.40;10.40;;;;;;;13.19;96.74;101989.47;5054778;28;20029;-47
2022/07/14 02:22:14;;;;;;;39.05;10.45;;;;;;;13.15;97.22;101992.78;5055019;28;20453;-46
2022/07/14 02:24:41;;;;;;;37.97;9.57;;;;;;;13.15;97.61;101988.47;5053376;28;20040;-47
2022/07/14 02:27:07;;;;;;;34.97;10.80;;;;;;;13.16;97.93;101991.94;5054757;28;20025;-47
2022/07/14 02:29:33;;;;;;;42.28;10.93;;;;;;;13.16;98.18;101985.06;5054859;28;20032;-47
2022/07/14 02:31:58;;;;;;;33.30;9.63;;;;;;;13.15;97.73;101987.59;5054111;28;20373;-49
2022/07/14 02:34:23;;;;;;;28.10;9.80;;;;;;;13.09;97.42;102002.88;5054575;28;20029;-46
2022/07/14 02:36:49;;;;;;;27.70;9.38;;;;;;;13.02;96.85;101999.19;5054769;28;20029;-49
2022/07/14 02:39:14;;;;;;;30.95;10.45;;;;;;;12.98;97.11;101992.16;5053689;28;20051;-49
2022/07/14 02:41:41;;;;;;;35.85;9.88;;;;;;;12.92;97.03;101981.56;5054607;28;20036;-46
2022/07/14 02:44:06;;;;;;;26.90;9.63;;;;;;;12.85;96.67;101983.91;5054384;28;20028;-48
2022/07/14 02:46:31;;;;;;;26.75;9.27;;;;;;;12.76;95.75;101982.69;5053811;28;20482;-47
2022/07/14 02:48:57;;;;;;;26.23;8.77;;;;;;;12.62;95.02;101985.59;5054464;28;20024;-47
2022/07/14 02:51:22;;;;;;;22.55;8.95;;;;;;;12.48;95.00;101976.41;5054405;28;20029;-48
2022/07/14 02:53:47;;;;;;;34.50;10.38;;;;;;;12.47;96.77;101980.72;5053673;28;20088;-44
2022/07/14 02:56:12;;;;;;;42.65;11.55;;;;;;;12.46;98.15;101978.03;5054290;28;20033;-47
2022/07/14 02:58:38;;;;;;;31.75;11.20;;;;;;;12.44;98.85;101969.34;5053630;28;20464;-47
2022/07/14 03:01:07;;;;;;;43.20;11.05;;;;;;;12.39;98.73;101971.75;5054215;28;20028;-48
2022/07/14 03:03:36;;;;;;;39.35;10.80;;;;;;;12.37;99.22;101975.09;5054417;28;20025;-49
2022/07/14 03:06:09;;;;;;;33.15;10.10;;;;;;;12.34;99.46;101970.69;5053472;28;20036;-48
2022/07/14 03:08:35;;;;;;;34.10;10.85;;;;;;;12.32;99.42;101970.63;5054219;28;20025;-48
2022/07/14 03:11:00;;;;;;;29.05;11.25;;;;;;;12.30;99.35;101966.22;5054010;28;20047;-47
2022/07/14 03:13:25;;;;;;;41.40;12.10;;;;;;;12.26;99.30;101966.91;5053510;28;20059;-46
2022/07/14 03:15:50;;;;;;;49.55;11.85;;;;;;;12.25;99.23;101965.13;5054112;28;20025;-45
2022/07/14 03:18:16;;;;;;;33.92;11.18;;;;;;;12.23;99.53;101953.88;5054010;28;20025;-48
2022/07/14 03:20:41;;;;;;;38.22;11.77;;;;;;;12.23;99.91;101951.28;5053132;28;20350;-46
2022/07/14 03:23:06;;;;;;;36.40;11.27;;;;;;;12.24;99.67;101947.88;5053652;28;20031;-46
2022/07/14 03:25:32;;;;;;;35.58;10.60;;;;;;;12.19;99.19;101948.56;5053861;28;20029;-49
2022/07/14 03:27:57;;;;;;;43.85;11.40;;;;;;;12.13;98.28;101939.69;5053106;28;20104;-47
2022/07/14 03:30:22;;;;;;;31.35;10.93;;;;;;;12.06;97.87;101938.56;5053752;28;20384;-49
2022/07/14 03:32:47;;;;;;;30.77;9.65;;;;;;;12.02;97.86;101939.25;5053641;28;20043;-45
2022/07/14 03:35:13;;;;;;;36.72;10.00;;;;;;;11.97;98.38;101940.78;5052662;28;20021;-47
2022/07/14 03:37:38;;;;;;;36.15;10.88;;;;;;;11.90;97.72;101944.75;5053708;28;20052;-46
2022/07/14 03:40:05;;;;;;;31.15;9.75;;;;;;;11.86;98.11;101942.84;5053047;28;20480;-47
2022/07/14 03:42:30;;;;;;;34.70;10.32;;;;;;;11.82;98.07;101938.38;5052719;28;20039;-45
2022/07/14 03:44:56;;;;;;;37.08;10.63;;;;;;;11.80;98.13;101938.31;5053563;28;20018;-44
2022/07/14 03:47:22;;;;;;;36.70;11.43;;;;;;;11.75;98.35;101949.25;5053462;28;20069;-47
2022/07/14 03:49:47;;;;;;;36.50;10.90;;;;;;;11.71;99.29;101943.09;5052670;28;20424;-45
2022/07/14 03:52:13;;;;;;;35.40;10.90;;;;;;;11.65;99.53;101946.28;5053166;28;20068;-46
2022/07/14 03:54:38;;;;;;;44.78;12.93;;;;;;;11.66;100.00;101955.81;5053261;28;20032;-46
2022/07/14 03:57:04;;;;;;;36.10;11.95;;;;;;;11.72;100.00;101954.31;5052121;28;20417;-46
2022/07/14 03:59:30;;;;;;;52.55;13.27;;;;;;;11.73;100.00;101959.53;5053126;28;20028;-48
2022/07/14 04:01:55;;;;;;;41.78;12.63;;;;;;;11.77;100.00;101958.84;5052663;28;20124;-45
2022/07/14 04:04:20;;;;;;;46.42;13.55;;;;;;;11.81;100.00;101965.94;5052845;28;20040;-46
2022/07/14 04:06:46;;;;;;;41.38;12.73;;;;;;;11.81;100.00;101965.94;5053154;28;20482;-48
2022/07/14 04:09:11;;;;;;;43.90;13.63;;;;;;;11.85;100.00;101960.06;5052000;28;20040;-49
2022/07/14 04:11:36;;;;;;;37.83;11.80;;;;;;;11.90;100.00;101965.41;5052935;28;20112;-46
2022/07/14 04:14:02;;;;;;;48.78;14.05;;;;;;;11.97;100.00;101961.44;5052985;28;20025;-47
2022/07/14 04:16:27;;;;;;;50.45;13.10;;;;;;;12.01;100.00;101960.75;5052065;28;20021;-47
2022/07/14 04:18:52;;;;;;;40.78;13.43;;;;;;;12.04;100.00;101962.56;5052872;28;20028;-46
2022/07/14 04:21:18;;;;;;;40.75;12.85;;;;;;;12.08;100.00;101954.13;5052514;28;20021;-46
2022/07/14 04:23:43;;;;;;;34.15;11.30;;;;;;;12.07;100.00;101953.25;5051982;28;20120;-47
2022/07/14 04:26:09;;;;;;;43.72;14.45;;;;;;;12.07;100.00;101952.34;5052325;28;20020;-47
2022/07/14 04:28:34;;;;;;;30.73;12.05;;;;;;;12.06;100.00;101951.47;5052892;28;20078;-47
2022/07/14 04:30:59;;;;;;;39.60;10.65;;;;;;;12.05;100.00;101954.88;5051955;28;20102;-45
2022/07/14 04:33:25;;;;;;;42.13;13.77;;;;;;;12.12;100.00;101963.75;5052509;28;20043;-48
2022/07/14 04:35:50;;;;;;;41.42;12.80;;;;;;;12.16;100.00;101955.31;5052498;28;20024;-48
2022/07/14 04:38:15;;;;;;;42.28;13.45;;;;;;;12.16;100.00;101956.19;5051484;28;20045;-48
2022/07/14 04:40:51;;;;;;;45.60;13.80;;;;;;;12.17;100.00;101952.81;5052291;28;20071;-45
2022/07/14 04:43:17;;;;;;;37.00;12.80;;;;;;;12.24;100.00;101953.03;5052322;28;20384;-47
2022/07/14 04:45:42;;;;;;;42.83;14.02;;;;;;;12.25;100.00;101954.81;5051754;28;20498;-47
2022/07/14 04:48:08;;;;;;;61.30;14.82;;;;;;;12.26;100.00;101960.03;5051787;28;20033;-46
2022/07/14 04:53:17;;;;;;;43.92;15.30;;;;;;;12.32;100.00;101960.28;5051633;28;20106;-48
2022/07/14 04:55:42;;;;;;;47.50;14.52;;;;;;;12.37;100.00;101957.00;5052522;28;20468;-48
2022/07/14 04:58:07;;;;;;;50.80;14.45;;;;;;;12.45;100.00;101958.19;5051906;28;20380;-49
2022/07/14 05:00:32;;;;;;;44.28;14.68;;;;;;;12.43;100.00;101963.28;5051581;28;20024;-46
2022/07/14 05:02:58;;;;;;;46.75;15.75;;;;;;;12.48;100.00;101964.34;5052163;28;20059;-48
2022/07/14 05:05:23;;;;;;;42.03;15.27;;;;;;;12.51;100.00;101969.66;5051456;28;20029;-45
2022/07/14 05:07:49;;;;;;;43.35;16.70;;;;;;;12.60;100.00;101971.72;5052118;28;20033;-46
2022/07/14 05:10:14;;;;;;;55.72;17.00;;;;;;;12.61;100.00;101973.47;5052247;28;20045;-47
2022/07/14 05:12:40;;;;;;;46.75;16.00;;;;;;;12.66;100.00;101981.44;5051489;28;20021;-48
2022/07/14 05:15:06;;;;;;;49.65;15.82;;;;;;;12.75;100.00;101981.78;5052081;28;20028;-47
2022/07/14 05:17:31;;;;;;;52.25;17.55;;;;;;;12.84;100.00;101982.13;5052277;28;20029;-45
2022/07/14 05:19:57;;;;;;;56.03;17.52;;;;;;;12.88;100.00;101980.53;5051213;28;20094;-48
2022/07/14 05:22:23;;;;;;;58.13;16.45;;;;;;;12.94;100.00;101977.34;5051924;28;20472;-47
2022/07/14 05:24:48;;;;;;;51.45;15.68;;;;;;;13.02;100.00;101970.72;5052253;28;20053;-47
2022/07/14 05:27:14;;;;;;;43.45;13.90;;;;;;;13.06;100.00;101974.31;5051255;28;20064;-48
2022/07/14 05:29:39;;;;;;;48.92;14.90;;;;;;;13.14;100.00;101973.78;5051885;28;20028;-47
2022/07/14 05:32:05;;;;;;;46.30;16.42;;;;;;;13.20;100.00;101969.66;5051802;28;20017;-48
2022/07/14 05:34:30;;;;;;;57.03;16.73;;;;;;;13.28;100.00;101963.91;5051149;28;20044;-48
2022/07/14 05:36:56;;;;;;;38.75;14.30;;;;;;;13.33;100.00;101971.84;5051787;28;20025;-45
2022/07/14 05:39:21;;;;;;;47.15;15.80;;;;;;;13.42;100.00;101972.22;5051661;28;20045;-49
2022/07/14 05:41:47;;;;;;;44.25;14.13;;;;;;;13.51;100.00;101976.84;5050925;28;20036;-47
2022/07/14 05:44:12;;;;;;;46.58;14.15;;;;;;;13.57;100.00;101973.59;5051899;28;20155;-48
2022/07/14 05:46:38;;;;;;;41.63;13.07;;;;;;;13.63;100.00;101976.41;5052148;28;20029;-47
2022/07/14 05:49:03;;;;;;;47.03;14.65;;;;;;;13.69;100.00;101981.81;5050884;28;20025;-48
2022/07/14 05:51:28;;;;;;;38.58;9.93;;;;;;;13.77;100.00;101980.34;5051948;28;20032;-48
2022/07/14 05:53:54;;;;;;;31.67;9.52;;;;;;;13.83;100.00;101980.56;5051706;28;20032;-47
2022/07/14 05:56:21;;;;;;;39.80;9.48;;;;;;;13.91;100.00;101977.38;5051103;28;20021;-47
2022/07/14 05:58:46;;;;;;;39.00;8.82;;;;;;;13.97;99.56;101972.41;5052064;28;20483;-47
2022/07/14 06:01:12;;;;;;;41.63;8.68;;;;;;;14.05;97.34;101960.56;5055194;28;20029;-46
2022/07/14 06:03:38;;;;;;;46.25;9.30;;;;;;;14.13;97.22;101964.28;5054693;28;20096;-46
2022/07/14 06:06:05;;;;;;;33.30;8.15;;;;;;;14.19;97.13;101965.31;5055127;28;20502;-46
2022/07/14 06:08:31;;;;;;;47.00;9.35;;;;;;;14.25;96.48;101965.50;5055221;28;20025;-45
2022/07/14 06:10:57;;;;;;;41.58;9.55;;;;;;;14.30;95.98;101964.81;5055218;28;20017;-48
2022/07/14 06:13:24;;;;;;;39.55;9.80;;;;;;;14.37;94.27;101965.91;5055266;28;20039;-47
2022/07/14 06:15:49;;;;;;;35.75;8.32;;;;;;;14.47;94.23;101964.47;5054416;28;20027;-48
2022/07/14 06:18:15;;;;;;;33.15;9.25;;;;;;;14.54;94.03;101968.13;5055060;28;20025;-46
2022/07/14 06:20:41;;;;;;;52.58;10.38;;;;;;;14.61;92.38;101968.38;5054971;28;20037;-47
2022/07/14 06:23:09;;;;;;;38.72;9.25;;;;;;;14.73;91.47;101967.03;5054255;28;20032;-49
2022/07/14 06:25:34;;;;;;;40.13;9.35;;;;;;;14.84;92.42;101967.38;5055204;28;20029;-47
2022/07/14 06:28:00;;;;;;;43.65;9.63;;;;;;;14.93;90.89;101960.72;5055063;28;20025;-47
2022/07/14 06:30:25;;;;;;;32.55;10.18;;;;;;;15.06;90.18;101958.50;5054088;28;20025;-47
2022/07/14 06:32:51;;;;;;;41.15;11.38;;;;;;;15.14;86.76;101965.69;5054835;28;20028;-46
2022/07/14 06:35:16;;;;;;;36.47;9.63;;;;;;;15.23;87.38;101959.84;5054719;28;20418;-48
2022/07/14 06:37:41;;;;;;;37.17;9.07;;;;;;;15.37;87.42;101973.22;5054163;28;20028;-47
2022/07/14 06:40:07;;;;;;;34.78;9.45;;;;;;;15.46;85.26;101973.47;5054469;28;20045;-46
2022/07/14 06:42:33;;;;;;;38.22;9.52;;;;;;;15.58;84.51;101983.34;5054525;28;20032;-49
2022/07/14 06:44:59;;;;;;;39.72;9.88;;;;;;;15.66;84.39;101985.25;5053645;28;20108;-48
2022/07/14 06:47:24;;;;;;;34.10;10.30;;;;;;;15.73;85.17;101975.06;5054371;28;20094;-49
2022/07/14 06:49:49;;;;;;;38.72;8.88;;;;;;;15.83;86.23;101972.72;5054240;28;20079;-48
2022/07/14 06:52:15;;;;;;;36.00;8.73;;;;;;;15.89;85.41;101967.69;5053625;28;20017;-48
2022/07/14 06:54:40;;;;;;;35.55;8.82;;;;;;;15.94;83.27;101968.69;5054743;28;20079;-48
2022/07/14 06:57:05;;;;;;;31.38;7.22;;;;;;;15.99;82.68;101972.28;5054368;28;20020;-48
2022/07/14 06:59:31;;;;;;;39.20;7.68;;;;;;;16.08;83.76;101975.13;5053669;28;20448;-47
2022/07/14 07:01:56;;;;;;;30.77;7.65;;;;;;;16.16;82.56;101966.63;5054419;28;20025;-49
2022/07/14 07:04:23;;;;;;;33.53;7.63;;;;;;;16.24;80.97;101959.88;5054067;28;20090;-49
2022/07/14 07:06:48;;;;;;;24.73;7.53;;;;;;;16.33;82.24;101959.22;5053613;28;20043;-49
2022/07/14 07:09:15;;;;;;;24.55;6.90;;;;;;;16.41;80.86;101963.78;5054241;28;20524;-49
2022/07/14 07:11:42;;;;;;;25.67;6.90;;;;;;;16.54;79.79;101953.63;5053828;28;20029;-48
2022/07/14 07:14:07;;;;;;;22.77;7.13;;;;;;;16.62;79.77;101967.72;5053130;28;20288;-48
2022/07/14 07:16:33;;;;;;;31.88;6.45;;;;;;;16.65;76.75;101969.50;5054153;28;20036;-49
2022/07/14 07:18:58;;;;;;;18.52;6.47;;;;;;;16.68;77.21;101969.56;5053088;28;20540;-50
2022/07/14 07:21:23;;;;;;;23.80;6.10;;;;;;;16.72;77.08;101963.56;5054068;28;20090;-53
2022/07/14 07:23:49;;;;;;;22.23;7.18;;;;;;;16.78;76.41;101968.91;5054116;28;20033;-48
2022/07/14 07:26:16;;;;;;;21.33;6.70;;;;;;;16.88;78.18;101965.66;5053133;28;20354;-49
2022/07/14 07:28:41;;;;;;;28.83;7.10;;;;;;;16.94;75.66;101958.03;5053913;28;20068;-48
2022/07/14 07:31:07;;;;;;;28.48;7.05;;;;;;;17.02;74.69;101962.53;5053443;28;20052;-47
2022/07/14 07:33:32;;;;;;;29.95;7.93;;;;;;;17.08;74.61;101960.94;5052962;28;20036;-46
2022/07/14 07:35:59;;;;;;;22.38;6.15;;;;;;;17.15;75.07;101954.09;5053855;28;20040;-49
2022/07/14 07:38:25;;;;;;;27.23;6.95;;;;;;;17.19;72.93;101955.94;5053477;28;20048;-49
2022/07/14 07:40:50;;;;;;;24.13;7.68;;;;;;;17.31;75.93;101949.19;5052756;28;20037;-49
2022/07/14 07:43:16;;;;;;;27.73;6.72;;;;;;;17.42;75.19;101945.94;5053241;28;20025;-48
2022/07/14 07:45:42;;;;;;;23.90;7.15;;;;;;;17.51;72.67;101952.19;5053373;28;20045;-49
2022/07/14 07:48:07;;;;;;;25.77;7.97;;;;;;;17.55;72.80;101939.22;5052532;28;20037;-48
2022/07/14 07:50:33;;;;;;;24.42;7.85;;;;;;;17.68;73.30;101942.94;5053312;28;20052;-46
2022/07/14 07:52:59;;;;;;;26.90;7.97;;;;;;;17.75;73.53;101939.59;5053219;28;20031;-47
2022/07/14 07:55:24;;;;;;;21.58;7.00;;;;;;;17.75;72.24;101939.59;5052633;28;20437;-48
2022/07/14 07:57:50;;;;;;;25.17;8.00;;;;;;;17.74;71.90;101943.06;5053218;28;20037;-48
2022/07/14 08:00:15;;;;;;;28.13;8.73;;;;;;;17.82;71.19;101944.91;5052965;28;20037;-47
2022/07/14 08:02:48;;;;;;;24.27;8.15;;;;;;;17.88;69.99;101942.41;5052561;28;20029;-47
2022/07/14 08:05:16;;;;;;;30.30;7.53;;;;;;;18.04;70.14;101934.00;5052941;28;20029;-45
2022/07/14 08:07:41;;;;;;;;;;;;;;;18.22;73.24;101933.44;5053572;28;20120;-44
2022/07/14 08:10:07;;;;;;;32.10;6.77;;;;;;;18.57;67.17;101933.06;5051766;28;20003;-46
2022/07/14 08:12:32;;;;;;;25.95;7.88;;;;;;;18.76;65.88;101934.19;5052902;28;20056;-48
2022/07/14 08:14:57;;;;;;;24.20;7.30;;;;;;;19.02;66.11;101930.19;5053298;28;20067;-45
2022/07/14 08:17:22;;;;;;;22.27;7.60;;;;;;;19.21;64.46;101907.72;5051880;28;20048;-48
2022/07/14 08:19:48;;;;;;;25.63;8.15;;;;;;;19.30;64.44;101915.69;5052916;28;20499;-44
2022/07/14 08:22:14;;;;;;;22.50;7.80;;;;;;;19.39;64.35;101901.81;5051110;28;20052;-44
2022/07/14 08:24:40;;;;;;;23.30;8.10;;;;;;;19.44;65.30;101915.81;5052878;28;20025;-43
2022/07/14 08:27:05;;;;;;;25.83;8.35;;;;;;;19.47;63.00;101904.50;5052637;28;20358;-44
2022/07/14 08:29:31;;;;;;;28.42;8.07;;;;;;;19.50;62.27;101909.78;5051984;28;20107;-47
2022/07/14 08:31:59;;;;;;;25.30;8.13;;;;;;;19.47;63.29;101904.50;5052556;28;20052;-44
2022/07/14 08:34:24;;;;;;;23.30;6.72;;;;;;;19.44;61.04;101905.34;5052446;28;20435;-48
2022/07/14 08:36:50;;;;;;;23.35;7.30;;;;;;;19.46;61.99;101902.75;5051945;28;20108;-48
2022/07/14 08:39:16;;;;;;;24.42;7.22;;;;;;;19.50;63.27;101900.19;5052150;28;20053;-45
2022/07/14 08:41:42;;;;;;;18.55;6.75;;;;;;;19.52;62.92;101906.31;5051983;28;20404;-48
2022/07/14 08:44:09;;;;;;;25.42;7.10;;;;;;;19.64;63.57;101907.28;5051360;28;20472;-47
2022/07/14 08:46:36;;;;;;;18.33;5.50;;;;;;;19.79;62.44;101909.16;5052598;28;20017;-47
2022/07/14 08:49:05;;;;;;;15.05;5.63;;;;;;;19.96;61.50;101902.38;5052535;28;20033;-48
2022/07/14 08:51:32;;;;;;;22.98;5.70;;;;;;;20.13;60.03;101901.59;5051794;28;20017;-48
2022/07/14 08:53:57;;;;;;;16.67;5.37;;;;;;;20.22;59.68;101906.91;5052531;28;20029;-46
2022/07/14 08:56:22;;;;;;;25.98;5.65;;;;;;;20.39;58.32;101900.00;5052190;28;20275;-45
2022/07/14 08:58:48;;;;;;;22.08;5.40;;;;;;;20.47;57.23;101900.06;5051650;28;20113;-47
2022/07/14 09:01:13;;;;;;;18.70;4.47;;;;;;;20.63;55.75;101903.66;5052053;28;20027;-47
2022/07/14 09:03:39;;;;;;;13.45;4.10;;;;;;;20.77;55.36;101895.84;5052321;28;20043;-47
2022/07/14 09:06:05;;;;;;;19.95;5.53;;;;;;;20.94;58.31;101898.56;5051595;28;20494;-47
2022/07/14 09:08:54;;;;;;;17.92;3.97;;;;;;;21.11;55.62;101902.94;5052426;28;20021;-45
2022/07/14 09:11:19;;;;;;;19.25;3.85;;;;;;;21.19;50.05;101898.63;5052066;28;20067;-46
2022/07/14 09:13:45;;;;;;;13.68;3.28;;;;;;;21.29;52.90;101891.63;5051321;28;20033;-46
2022/07/14 09:16:21;;;;;;;18.38;4.45;;;;;;;21.43;53.46;101899.53;5052218;28;20257;-49
2022/07/14 09:19:07;;;;;;;9.57;3.42;;;;;;;21.64;54.97;101902.19;5051214;28;20025;-48
2022/07/14 09:21:34;;;;;;;11.07;3.10;;;;;;;21.68;50.18;101898.69;5052082;28;20029;-49
2022/07/14 09:24:00;;;;;;;10.38;3.15;;;;;;;21.77;47.67;101894.31;5052022;28;20379;-48
2022/07/14 09:26:26;;;;;;;17.42;3.20;;;;;;;21.97;51.51;101897.78;5051435;28;20520;-48
2022/07/14 09:28:52;;;;;;;13.73;3.45;;;;;;;22.07;48.58;101895.19;5051929;28;20036;-48
2022/07/14 09:31:31;;;;;;;9.52;2.75;;;;;;;22.18;48.88;101893.38;5052220;28;20037;-48
2022/07/14 09:33:58;;;;;;;11.02;2.58;;;;;;;22.14;45.90;101891.66;5053426;28;20067;-47
2022/07/14 09:36:36;;;;;;;10.95;3.90;;;;;;;22.21;46.76;101888.16;5055869;28;20192;-48
2022/07/14 09:39:10;;;;;;;10.25;2.70;;;;;;;22.41;47.77;101889.88;5055500;28;20098;-46
2022/07/14 09:41:48;;;;;;;10.98;2.65;;;;;;;22.71;49.32;101888.00;5054952;28;20033;-49
2022/07/14 09:44:17;;;;;;;13.50;2.90;;;;;;;23.00;47.76;101880.84;5055469;28;20021;-47
2022/07/14 09:47:00;;;;;;;14.05;2.40;;;;;;;23.23;48.22;101882.50;5055116;28;20032;-48
2022/07/14 09:49:28;;;;;;;17.30;3.15;;;;;;;23.52;45.03;101889.28;5055532;28;20114;-48
2022/07/14 09:52:01;;;;;;;8.20;2.95;;;;;;;23.50;43.50;101886.69;5055685;28;20029;-47
2022/07/14 09:54:47;;;;;;;12.13;2.88;;;;;;;23.59;46.41;101885.75;5054548;28;20029;-49
2022/07/14 09:57:12;;;;;;;9.77;2.60;;;;;;;23.79;44.45;101889.94;5055262;28;20490;-49
2022/07/14 09:59:56;;;;;;;9.17;2.30;;;;;;;23.90;44.33;101889.84;5055492;28;20029;-47
2022/07/14 10:02:22;;;;;;;14.05;2.60;;;;;;;24.42;41.49;101902.50;5054521;28;20041;-48
2022/07/14 10:04:50;;;;;;;7.30;2.03;;;;;;;24.81;38.23;101899.44;5055279;28;20099;-45
2022/07/14 10:07:17;;;;;;;11.68;2.75;;;;;;;25.19;39.78;101889.22;5055167;28;20284;-44
2022/07/14 10:09:54;;;;;;;8.50;2.17;;;;;;;25.33;38.04;101894.31;5054261;28;20028;-45
2022/07/14 10:12:20;;;;;;;11.80;2.13;;;;;;;25.24;39.06;101895.31;5055228;28;20037;-48
2022/07/14 10:14:47;;;;;;;12.23;2.10;;;;;;;25.15;37.86;101898.94;5054440;28;20037;-48
2022/07/14 10:17:15;;;;;;;12.57;1.92;;;;;;;26.27;36.83;101901.53;5054945;28;20476;-48
2022/07/14 10:19:41;;;;;;;10.00;2.13;;;;;;;26.35;33.97;101898.75;5055053;28;20028;-46
2022/07/14 10:22:08;;;;;;;9.13;1.75;;;;;;;27.24;36.03;101890.66;5053931;28;20021;-49
2022/07/14 10:24:34;;;;;;;;;;;;;;;27.59;39.03;101898.66;5055247;28;20108;-45
2022/07/14 10:27:00;;;;;;;11.20;2.17;;;;;;;28.51;35.68;101900.63;5054994;28;20275;-48
2022/07/14 10:29:25;;;;;;;12.40;2.92;;;;;;;28.64;34.76;101908.22;5053953;28;20025;-49
2022/07/14 10:32:02;;;;;;;11.60;2.35;;;;;;;28.23;33.27;101911.16;5054694;28;20037;-47
2022/07/14 10:35:06;;;;;;;7.25;2.38;;;;;;;28.23;36.51;101901.41;5054780;28;20103;-49
2022/07/14 10:38:01;;;;;;;7.28;2.03;;;;;;;28.35;34.84;101902.00;5054011;28;20033;-46
2022/07/14 10:40:39;;;;;;;6.57;1.63;;;;;;;28.36;34.15;101904.59;5054220;28;20076;-46
2022/07/14 10:43:05;;;;;;;7.78;2.50;;;;;;;28.49;32.56;101898.94;5053462;28;20055;-49
2022/07/14 10:45:31;;;;;;;9.30;1.88;;;;;;;28.23;32.18;101898.75;5054063;28;20021;-49
2022/07/14 10:47:57;;;;;;;10.00;1.98;;;;;;;27.84;32.51;101896.25;5054524;28;20029;-48
2022/07/14 10:50:24;;;;;;;8.40;2.28;;;;;;;27.66;33.84;101897.59;5053472;28;20028;-49
2022/07/14 10:52:55;;;;;;;9.52;2.20;;;;;;;27.11;34.49;101902.44;5054281;28;20017;-48
2022/07/14 10:55:23;;;;;;;6.05;2.05;;;;;;;26.76;36.08;101904.09;5054221;28;20028;-47
2022/07/14 10:58:01;;;;;;;11.77;2.22;;;;;;;27.52;36.10;101900.59;5053347;28;20028;-49
2022/07/14 11:00:44;;;;;;;10.48;2.08;;;;;;;29.01;34.01;101896.53;5054358;28;20064;-46
2022/07/14 11:03:32;;;;;;;9.38;2.33;;;;;;;30.21;33.28;101886.31;5053960;28;20056;-48
2022/07/14 11:06:01;;;;;;;11.65;2.60;;;;;;;30.86;28.48;101884.78;5050565;28;20033;-48
2022/07/14 11:08:27;;;;;;;7.07;2.47;;;;;;;31.20;27.49;101883.44;5054219;28;20032;-48
2022/07/14 11:10:53;;;;;;;9.60;2.13;;;;;;;31.52;28.68;101889.22;5054345;28;20095;-48
2022/07/14 11:13:19;;;;;;;10.20;2.03;;;;;;;32.04;28.57;101895.91;5053276;28;20021;-49
2022/07/14 11:15:49;;;;;;;11.98;2.28;;;;;;;31.92;27.50;101893.78;5054092;28;20032;-50
2022/07/14 11:18:18;;;;;;;7.85;1.90;;;;;;;31.82;26.45;101898.66;5052875;28;20412;-49